Latest Weather Observations for Wattamolla

IDN60901

Issued at 5:21 am EDT Wednesday 13 November 2019 (issued every 10 minutes, with the page automatically refreshed every 10 minutes)

About weather observations | Map of Sydney area stations | Latest observations for Sydney area | Other Formats
Station Details ID: 066208 Name: WATTAMOLLA AWS Lat: -34.14 Lon: 151.12 Height: 44.0 m
Data from the previous 72 hours. | See also: Recent months at Wattamolla
Date/Time
EDT
Temp
°C
App
Temp
°C
Dew
Point
°C
Rel
Hum
%
Delta-T
°C
Wind Press
QNH
hPa
Press
MSL
hPa
Rain since
9am
mm
Dir  Spd
km/h
Gust
km/h
Spd
kts
Gust
kts
13/05:00am - - - - - WNW 20 24 11 13 - - -
13/04:30am - - - - - WSW 19 32 10 17 - - -
13/04:00am - - - - - SW 13 19 7 10 - - -
13/03:30am - - - - - S 19 26 10 14 - - -
13/03:00am - - - - - SSE 22 32 12 17 - - -
13/02:30am - - - - - S 33 41 18 22 - - -
13/02:00am - - - - - S 35 43 19 23 - - -
13/01:30am - - - - - S 35 41 19 22 - - -
13/01:00am - - - - - S 39 46 21 25 - - -
13/12:30am - - - - - S 44 52 24 28 - - -
13/12:00am - - - - - SSE 50 57 27 31 - - -
 
Date/Time
EDT
Temp
°C
App
Temp
°C
Dew
Point
°C
Rel
Hum
%
Delta-T
°C
Wind Press
QNH
hPa
Press
MSL
hPa
Rain since
9am
mm
Dir  Spd
km/h
Gust
km/h
Spd
kts
Gust
kts
12/11:30pm - - - - - SSE 52 63 28 34 - - -
12/11:00pm - - - - - SSE 56 67 30 36 - - -
12/10:30pm - - - - - SSE 57 70 31 38 - - -
12/10:00pm - - - - - SSE 61 74 33 40 - - -
12/09:30pm - - - - - SSE 61 72 33 39 - - -
12/09:00pm - - - - - S 61 74 33 40 - - -
12/08:30pm - - - - - S 59 70 32 38 - - -
12/08:00pm - - - - - S 61 76 33 41 - - -
12/07:30pm - - - - - S 57 72 31 39 - - -
12/07:00pm - - - - - S 61 80 33 43 - - -
12/06:46pm - - - - - SSW 32 87 17 47 - - -
12/06:44pm - - - - - SW 24 74 13 40 - - -
12/06:30pm - - - - - SW 28 37 15 20 - - -
12/06:01pm - - - - - W 28 54 15 29 - - -
12/06:00pm - - - - - W 26 48 14 26 - - -
12/05:30pm - - - - - W 24 37 13 20 - - -
12/05:00pm - - - - - W 24 39 13 21 - - -
12/04:30pm - - - - - WNW 30 48 16 26 - - -
12/04:03pm - - - - - WNW 32 50 17 27 - - -
12/04:00pm - - - - - WNW 32 50 17 27 - - -
12/03:30pm - - - - - WNW 20 35 11 19 - - -
12/03:03pm - - - - - NW 28 50 15 27 - - -
12/03:00pm - - - - - NW 26 50 14 27 - - -
12/02:30pm - - - - - NW 32 56 17 30 - - -
12/02:03pm - - - - - NW 28 52 15 28 - - -
12/02:00pm - - - - - NW 26 41 14 22 - - -
12/01:30pm - - - - - NW 30 56 16 30 - - -
12/01:00pm - - - - - WNW 30 50 16 27 - - -
12/12:38pm - - - - - NW 28 48 15 26 - - -
12/12:30pm - - - - - NW 26 39 14 21 - - -
12/12:00pm - - - - - NW 20 33 11 18 - - -
12/11:30am - - - - - NNW 17 33 9 18 - - -
12/11:00am - - - - - NNW 19 35 10 19 - - -
12/10:42am - - - - - NW 28 48 15 26 - - -
12/10:30am - - - - - NNW 17 33 9 18 - - -
12/10:00am - - - - - NNW 20 35 11 19 - - -
12/09:30am - - - - - N 20 32 11 17 - - -
12/09:00am - - - - - N 20 32 11 17 - - -
12/08:30am - - - - - N 22 30 12 16 - - -
12/08:00am - - - - - NNW 20 30 11 16 - - -
12/07:30am - - - - - NNW 20 30 11 16 - - -
12/07:00am - - - - - NNW 17 24 9 13 - - -
12/06:30am - - - - - NNW 17 24 9 13 - - -
12/06:00am - - - - - NNW 17 26 9 14 - - -
12/05:30am - - - - - NNW 15 20 8 11 - - -
12/05:00am - - - - - NNW 17 26 9 14 - - -
12/04:30am - - - - - NNW 17 24 9 13 - - -
12/04:00am - - - - - NNW 19 24 10 13 - - -
12/03:30am - - - - - NNW 15 20 8 11 - - -
12/03:00am - - - - - NNW 15 19 8 10 - - -
12/02:30am - - - - - NNW 15 19 8 10 - - -
12/02:00am - - - - - NW 19 22 10 12 - - -
12/01:30am - - - - - NW 13 19 7 10 - - -
12/01:00am - - - - - NNW 11 15 6 8 - - -
12/12:30am - - - - - N 11 13 6 7 - - -
12/12:00am - - - - - N 9 13 5 7 - - -
 
Date/Time
EDT
Temp
°C
App
Temp
°C
Dew
Point
°C
Rel
Hum
%
Delta-T
°C
Wind Press
QNH
hPa
Press
MSL
hPa
Rain since
9am
mm
Dir  Spd
km/h
Gust
km/h
Spd
kts
Gust
kts
11/11:30pm - - - - - N 13 15 7 8 - - -
11/11:00pm - - - - - NNW 6 9 3 5 - - -
11/10:30pm - - - - - NNW 9 11 5 6 - - -
11/10:00pm - - - - - N 17 28 9 15 - - -
11/09:30pm - - - - - N 33 41 18 22 - - -
11/09:00pm - - - - - N 33 44 18 24 - - -
11/08:30pm - - - - - N 35 50 19 27 - - -
11/08:21pm - - - - - N 32 50 17 27 - - -
11/08:00pm - - - - - N 33 48 18 26 - - -
11/07:52pm - - - - - N 30 48 16 26 - - -
11/07:30pm - - - - - N 24 35 13 19 - - -
11/07:00pm - - - - - N 28 39 15 21 - - -
11/06:30pm - - - - - NNE 30 39 16 21 - - -
11/06:00pm - - - - - NNE 32 44 17 24 - - -
11/05:30pm - - - - - NNE 37 52 20 28 - - -
11/05:12pm - - - - - N 39 57 21 31 - - -
11/05:00pm - - - - - N 35 52 19 28 - - -
11/04:57pm - - - - - N 35 54 19 29 - - -
11/04:30pm - - - - - NNE 35 50 19 27 - - -
11/04:00pm - - - - - NNE 32 46 17 25 - - -
11/03:32pm - - - - - NNE 28 46 15 25 - - -
11/03:30pm - - - - - NNE 30 46 16 25 - - -
11/03:06pm - - - - - NE 32 50 17 27 - - -
11/03:00pm - - - - - NE 33 50 18 27 - - -
11/02:30pm - - - - - NE 32 43 17 23 - - -
11/02:00pm - - - - - NE 32 43 17 23 - - -
11/01:30pm - - - - - NE 32 44 17 24 - - -
11/01:00pm - - - - - NE 32 44 17 24 - - -
11/12:30pm - - - - - NE 28 39 15 21 - - -
11/12:00pm - - - - - NE 28 39 15 21 - - -
11/11:30am - - - - - NE 24 35 13 19 - - -
11/11:00am - - - - - NNW 11 19 6 10 - - -
11/10:30am - - - - - N 13 20 7 11 - - -
11/10:00am - - - - - NNW 15 24 8 13 - - -
11/09:30am - - - - - NNW 20 32 11 17 - - -
11/09:00am - - - - - NNW 19 30 10 16 - - -
11/08:30am - - - - - NNW 17 28 9 15 - - -
11/08:00am - - - - - NNW 15 22 8 12 - - -
11/07:30am - - - - - NNW 15 24 8 13 - - -
11/07:00am - - - - - NNW 13 22 7 12 - - -
11/06:30am - - - - - NNW 13 15 7 8 - - -
11/06:00am - - - - - NNW 15 17 8 9 - - -
11/05:30am - - - - - NW 13 17 7 9 - - -
11/05:00am - - - - - NW 15 17 8 9 - - -
11/04:30am - - - - - NW 15 17 8 9 - - -
11/04:00am - - - - - NW 15 17 8 9 - - -
11/03:30am - - - - - NW 17 19 9 10 - - -
11/03:00am - - - - - NW 17 19 9 10 - - -
11/02:30am - - - - - NW 17 19 9 10 - - -
11/02:00am - - - - - NW 17 17 9 9 - - -
11/01:30am - - - - - NW 17 17 9 9 - - -
11/01:00am - - - - - NW 15 17 8 9 - - -
11/12:30am - - - - - NW 15 15 8 8 - - -
11/12:00am - - - - - NW 11 13 6 7 - - -
 
Date/Time
EDT
Temp
°C
App
Temp
°C
Dew
Point
°C
Rel
Hum
%
Delta-T
°C
Wind Press
QNH
hPa
Press
MSL
hPa
Rain since
9am
mm
Dir  Spd
km/h
Gust
km/h
Spd
kts
Gust
kts
10/11:30pm - - - - - NW 11 13 6 7 - - -
10/11:00pm - - - - - NW 13 15 7 8 - - -
10/10:30pm - - - - - SSE 11 13 6 7 - - -
10/10:00pm - - - - - SSE 15 22 8 12 - - -
10/09:30pm - - - - - SSE 20 30 11 16 - - -
10/09:00pm - - - - - SSE 20 30 11 16 - - -
10/08:30pm - - - - - SSE 28 35 15 19 - - -
10/08:00pm - - - - - SSE 26 35 14 19 - - -
10/07:30pm - - - - - SSE 28 37 15 20 - - -
10/07:00pm - - - - - SSE 30 39 16 21 - - -
10/06:30pm - - - - - SSE 28 39 15 21 - - -
10/06:00pm - - - - - SE 30 37 16 20 - - -
10/05:30pm - - - - - SSE 32 39 17 21 - - -
10/05:00pm - - - - - SSE 28 33 15 18 - - -
10/04:30pm - - - - - SSE 28 33 15 18 - - -
10/04:00pm - - - - - SSE 28 32 15 17 - - -
10/03:30pm - - - - - SE 26 33 14 18 - - -
10/03:00pm - - - - - SE 19 26 10 14 - - -
10/02:30pm - - - - - SE 22 28 12 15 - - -
10/02:00pm - - - - - SSE 20 26 11 14 - - -
10/01:30pm - - - - - SSE 22 26 12 14 - - -
10/01:00pm - - - - - SSE 19 24 10 13 - - -
10/12:30pm - - - - - SSE 19 26 10 14 - - -
10/12:00pm - - - - - SSE 19 22 10 12 - - -
10/11:30am - - - - - SSE 24 30 13 16 - - -
10/11:00am - - - - - SSE 22 28 12 15 - - -
10/10:30am - - - - - S 28 33 15 18 - - -
10/10:00am - - - - - S 19 30 10 16 - - -
10/09:30am - - - - - SW 17 32 9 17 - - -
10/09:00am - - - - - W 24 37 13 20 - - -
10/08:30am - - - - - WSW 26 41 14 22 - - -
10/08:00am - - - - - W 28 44 15 24 - - -
10/07:50am - - - - - W 30 48 16 26 - - -
10/07:30am - - - - - W 30 43 16 23 - - -
10/07:00am - - - - - W 26 39 14 21 - - -
10/06:30am - - - - - W 28 39 15 21 - - -
10/06:00am - - - - - W 24 39 13 21 - - -
10/05:30am - - - - - W 22 32 12 17 - - -

Latest Capital City Observations: Canberra | Sydney | Melbourne | Brisbane | Adelaide | Perth | Hobart | Darwin

Other formats

Comma delimited format used in spreadsheet applications
http://www.bom.gov.au/fwo/IDN60901/IDN60901.95752.axf

JavaScript Object Notation format (JSON) in row-major order
http://www.bom.gov.au/fwo/IDN60901/IDN60901.95752.json

Data quality

Most of these data are generated automatically and are frequently updated. Quality checks on data are not normally performed. It is possible for incorrect values to appear. Refer to information at About Latest Weather Observations and please check the disclaimer before using these data.